Time;durP1;ratioP1;P1;durP2;ratioP2;P2;SDS_P1;SDS_P2;PMS_P1;PMS_P2;Temp;Humidity;BMP_temperature;BMP_pressure;BME280_temperature;BME280_humidity;BME280_pressure;Samples;Min_cycle;Max_cycle;Signal;HPM_P1;HPM_P2
2021/07/01 00:00:46;;;;;;;19.40;15.07;;;;;;;14.38;100.00;100014.34;5062789;28;20203;-73
2021/07/01 00:03:12;;;;;;;22.87;14.47;;;;;;;14.37;100.00;100017.03;5062830;28;20735;-71
2021/07/01 00:05:38;;;;;;;18.23;15.13;;;;;;;14.39;100.00;100013.44;5062990;28;20785;-72
2021/07/01 00:08:06;;;;;;;16.17;13.20;;;;;;;14.36;100.00;100013.53;5063473;28;20203;-72
2021/07/01 00:10:33;;;;;;;14.07;12.20;;;;;;;14.32;100.00;100021.63;5062912;28;20219;-73
2021/07/01 00:12:59;;;;;;;13.60;12.10;;;;;;;14.29;100.00;100033.09;5062715;28;20289;-72
2021/07/01 00:15:30;;;;;;;12.20;11.10;;;;;;;14.25;100.00;100039.38;5062673;28;20208;-72
2021/07/01 00:17:56;;;;;;;13.17;11.83;;;;;;;14.26;99.97;100043.72;5062956;28;20222;-72
2021/07/01 00:20:24;;;;;;;14.37;10.90;;;;;;;14.25;100.00;100042.88;5062979;28;20211;-73
2021/07/01 00:22:51;;;;;;;16.93;10.63;;;;;;;14.20;99.75;100047.44;5062763;28;20266;-73
2021/07/01 00:25:18;;;;;;;11.53;10.33;;;;;;;14.15;99.96;100045.91;5063594;28;20212;-73
2021/07/01 00:27:45;;;;;;;12.37;10.90;;;;;;;14.13;99.78;100042.50;5062670;28;20292;-73
2021/07/01 00:30:14;;;;;;;13.73;10.03;;;;;;;14.12;100.00;100046.06;5062814;28;20714;-73
2021/07/01 00:32:42;;;;;;;13.53;10.43;;;;;;;14.01;99.84;100056.97;5062050;28;20267;-72
2021/07/01 00:35:10;;;;;;;11.90;10.53;;;;;;;14.07;99.67;100059.34;5062587;28;20207;-72
2021/07/01 00:37:38;;;;;;;12.40;11.10;;;;;;;13.97;99.27;100058.84;5062035;28;20284;-73
2021/07/01 00:40:07;;;;;;;12.47;10.67;;;;;;;13.94;99.25;100060.75;5063346;28;20199;-73
2021/07/01 00:42:34;;;;;;;12.80;11.47;;;;;;;13.88;99.05;100067.09;5062669;28;20681;-72
2021/07/01 00:45:00;;;;;;;12.37;11.37;;;;;;;13.80;98.56;100066.53;5062821;28;20210;-72
2021/07/01 00:47:27;;;;;;;11.60;10.33;;;;;;;13.76;98.38;100075.44;5062462;28;20248;-72
2021/07/01 00:49:54;;;;;;;12.40;11.20;;;;;;;13.73;98.41;100079.03;5062077;28;20290;-73
2021/07/01 00:52:21;;;;;;;11.50;10.40;;;;;;;13.72;98.35;100081.72;5061950;28;20258;-73
2021/07/01 00:54:48;;;;;;;11.00;9.93;;;;;;;13.65;98.09;100083.69;5061964;28;20404;-73
2021/07/01 00:57:14;;;;;;;10.17;9.13;;;;;;;13.62;98.68;100075.97;5062632;28;20231;-73
2021/07/01 00:59:40;;;;;;;11.37;10.27;;;;;;;13.63;98.90;100067.16;5062413;28;20203;-73
2021/07/01 01:02:07;;;;;;;9.57;8.60;;;;;;;13.63;98.70;100064.53;5061425;28;20634;-73
2021/07/01 01:04:34;;;;;;;9.60;8.80;;;;;;;13.61;98.36;100069.00;5062621;28;20211;-73
2021/07/01 01:07:03;;;;;;;10.40;9.33;;;;;;;13.55;99.16;100053.50;5062474;28;20223;-73
2021/07/01 01:09:29;;;;;;;10.43;9.03;;;;;;;13.47;98.75;100052.00;5061931;28;20287;-73
2021/07/01 01:11:56;;;;;;;10.97;9.40;;;;;;;13.46;99.00;100046.84;5061533;28;20462;-73
2021/07/01 01:14:22;;;;;;;10.47;9.50;;;;;;;13.44;99.14;100044.25;5062507;28;20348;-73
2021/07/01 01:16:49;;;;;;;9.33;8.60;;;;;;;13.45;99.41;100056.44;5061245;28;20648;-73
2021/07/01 01:19:15;;;;;;;8.90;8.20;;;;;;;13.42;99.55;100056.56;5062229;28;20553;-73
2021/07/01 01:21:45;;;;;;;9.73;8.83;;;;;;;13.40;99.09;100053.16;5062103;28;20207;-74
2021/07/01 01:24:11;;;;;;;9.00;8.30;;;;;;;13.34;99.29;100050.75;5062324;28;20502;-74
2021/07/01 01:26:38;;;;;;;10.20;9.27;;;;;;;13.38;99.72;100036.63;5061348;28;20267;-74
2021/07/01 01:29:04;;;;;;;9.03;8.23;;;;;;;13.39;100.00;100038.31;5061848;28;20211;-74
2021/07/01 01:31:31;;;;;;;9.53;8.23;;;;;;;13.37;99.61;100042.78;5063020;28;20626;-74
2021/07/01 01:33:57;;;;;;;9.07;8.20;;;;;;;13.42;99.52;100042.59;5061665;28;20874;-74
2021/07/01 01:36:24;;;;;;;8.93;8.23;;;;;;;13.44;99.53;100033.78;5060991;28;20249;-73
2021/07/01 01:38:52;;;;;;;12.37;8.33;;;;;;;13.42;99.74;100043.47;5061868;28;20223;-74
2021/07/01 01:41:22;;;;;;;11.23;8.73;;;;;;;13.43;99.75;100045.16;5061296;28;20685;-74
2021/07/01 01:43:49;;;;;;;12.30;9.07;;;;;;;13.37;99.40;100049.78;5061809;28;20202;-74
2021/07/01 01:46:15;;;;;;;9.60;8.70;;;;;;;13.40;100.00;100044.41;5061572;28;20320;-73
2021/07/01 01:48:42;;;;;;;8.40;7.77;;;;;;;13.42;99.73;100047.81;5061787;28;21056;-73
2021/07/01 01:51:09;;;;;;;9.10;8.20;;;;;;;13.50;99.50;100049.28;5061593;28;20344;-74
2021/07/01 01:53:35;;;;;;;9.93;8.13;;;;;;;13.43;98.96;100055.66;5061346;28;20252;-74
2021/07/01 01:56:03;;;;;;;9.73;8.60;;;;;;;13.45;99.39;100047.72;5061117;28;20805;-74
2021/07/01 01:58:29;;;;;;;8.83;8.00;;;;;;;13.36;99.51;100051.56;5061209;28;20831;-74
2021/07/01 02:00:56;;;;;;;8.50;7.70;;;;;;;13.34;99.38;100055.13;5061877;28;20261;-73
2021/07/01 02:03:22;;;;;;;9.20;8.00;;;;;;;13.38;99.67;100049.75;5061422;28;20268;-74
2021/07/01 02:05:48;;;;;;;8.80;8.10;;;;;;;13.26;99.66;100053.63;5061849;28;20207;-74
2021/07/01 02:08:15;;;;;;;9.60;8.80;;;;;;;13.19;99.81;100046.03;5061029;28;20214;-74
2021/07/01 02:10:41;;;;;;;9.40;8.60;;;;;;;13.20;100.00;100045.13;5061124;28;20495;-74
2021/07/01 02:13:11;;;;;;;8.77;8.07;;;;;;;13.12;99.61;100040.13;5060987;28;20210;-74
2021/07/01 02:15:39;;;;;;;9.67;8.87;;;;;;;13.10;99.83;100031.47;5062361;28;20222;-75
2021/07/01 02:18:05;;;;;;;9.47;8.77;;;;;;;13.00;100.00;100024.88;5062835;28;20202;-74
2021/07/01 02:20:31;;;;;;;10.00;8.97;;;;;;;13.02;100.00;100013.44;5062949;28;20234;-75
2021/07/01 02:22:58;;;;;;;10.10;9.23;;;;;;;13.05;100.00;100015.09;5061698;28;20211;-74
2021/07/01 02:25:24;;;;;;;10.87;9.90;;;;;;;12.98;100.00;100018.81;5060989;28;20293;-74
2021/07/01 02:27:50;;;;;;;11.53;10.57;;;;;;;13.02;100.00;100017.81;5060932;28;20302;-75
2021/07/01 02:30:19;;;;;;;10.07;9.23;;;;;;;13.13;100.00;100014.81;5061276;28;20276;-74
2021/07/01 02:32:46;;;;;;;10.60;9.57;;;;;;;13.14;100.00;100017.38;5061495;28;20210;-75
2021/07/01 02:35:12;;;;;;;9.63;8.73;;;;;;;13.21;100.00;100015.38;5060857;28;20677;-74
2021/07/01 02:37:40;;;;;;;10.03;9.23;;;;;;;13.26;100.00;100016.94;5061088;28;20229;-74
2021/07/01 02:40:09;;;;;;;10.50;9.50;;;;;;;13.31;100.00;100027.28;5064986;28;20205;-74
2021/07/01 02:42:36;;;;;;;10.50;9.50;;;;;;;13.32;100.00;100034.25;5064340;28;20579;-74
2021/07/01 02:45:02;;;;;;;10.70;9.63;;;;;;;13.24;100.00;100030.97;5065251;28;20206;-74
2021/07/01 02:47:30;;;;;;;10.97;10.07;;;;;;;13.27;100.00;100017.78;5064197;28;20221;-73
2021/07/01 02:49:56;;;;;;;9.60;8.80;;;;;;;13.35;100.00;100022.78;5064695;28;20226;-73
2021/07/01 02:52:22;;;;;;;9.33;8.47;;;;;;;13.42;100.00;100017.25;5064485;28;20215;-74
2021/07/01 02:54:49;;;;;;;9.53;8.73;;;;;;;13.41;100.00;100019.91;5064442;28;20746;-74
2021/07/01 02:57:16;;;;;;;10.63;9.83;;;;;;;13.46;100.00;100024.09;5064064;28;20721;-74
2021/07/01 02:59:42;;;;;;;10.13;9.33;;;;;;;13.35;99.80;100041.97;5065220;28;20260;-74
2021/07/01 03:02:08;;;;;;;11.40;10.33;;;;;;;13.13;99.53;100046.25;5064472;28;20271;-74
2021/07/01 03:04:36;;;;;;;9.87;9.17;;;;;;;12.99;99.02;100049.38;5064232;28;20256;-73
2021/07/01 03:07:02;;;;;;;13.43;10.30;;;;;;;12.98;99.96;100035.38;5064457;28;20217;-74
2021/07/01 03:09:29;;;;;;;10.53;9.73;;;;;;;12.99;100.00;100031.88;5064546;28;20210;-74
2021/07/01 03:11:55;;;;;;;10.37;9.57;;;;;;;12.99;99.33;100050.22;5064200;28;20230;-73
2021/07/01 03:14:22;;;;;;;10.90;9.90;;;;;;;12.83;99.55;100051.66;5064034;28;20208;-73
2021/07/01 03:16:48;;;;;;;10.13;9.33;;;;;;;12.75;99.13;100046.69;5063943;28;20227;-74
2021/07/01 03:19:14;;;;;;;11.70;10.70;;;;;;;12.75;99.13;100046.69;5064417;28;21357;-73
2021/07/01 03:21:42;;;;;;;9.93;9.13;;;;;;;12.86;99.54;100041.06;5064115;28;20221;-73
2021/07/01 03:24:08;;;;;;;11.97;10.57;;;;;;;12.94;99.05;100039.03;5064064;28;20211;-74
2021/07/01 03:26:35;;;;;;;10.97;10.07;;;;;;;12.85;99.24;100042.84;5063685;28;20428;-74
2021/07/01 03:29:01;;;;;;;11.67;10.73;;;;;;;12.79;99.58;100042.22;5064544;28;20256;-74
2021/07/01 03:31:27;;;;;;;12.43;11.43;;;;;;;12.79;99.56;100026.50;5063590;28;20207;-74
2021/07/01 03:33:54;;;;;;;14.00;12.67;;;;;;;12.76;99.69;100029.19;5063231;28;20630;-73
2021/07/01 03:36:20;;;;;;;13.23;12.13;;;;;;;12.65;99.64;100021.72;5064138;28;20223;-73
2021/07/01 03:38:48;;;;;;;14.60;13.40;;;;;;;12.61;100.00;100018.34;5063584;28;20230;-73
2021/07/01 03:41:14;;;;;;;14.27;12.90;;;;;;;12.76;99.99;100003.00;5063848;28;20958;-74
2021/07/01 03:43:42;;;;;;;12.83;11.83;;;;;;;12.72;99.83;100017.97;5063448;28;20221;-74
2021/07/01 03:46:09;;;;;;;13.80;12.70;;;;;;;12.77;99.59;100012.59;5064264;28;20230;-74
2021/07/01 03:48:35;;;;;;;13.37;12.37;;;;;;;12.75;99.23;100022.28;5062795;28;20583;-73
2021/07/01 03:51:03;;;;;;;12.37;11.33;;;;;;;12.70;98.84;100025.91;5063625;28;20617;-73
2021/07/01 03:53:29;;;;;;;16.47;12.43;;;;;;;12.76;99.23;100035.28;5063720;28;20210;-74
2021/07/01 03:55:57;;;;;;;12.50;11.20;;;;;;;12.80;99.16;100028.19;5063724;28;20233;-74
2021/07/01 03:58:23;;;;;;;12.93;11.73;;;;;;;12.76;98.82;100039.69;5063713;28;20267;-74
2021/07/01 04:00:50;;;;;;;13.47;12.27;;;;;;;12.61;98.83;100039.31;5063402;28;20296;-74
2021/07/01 04:03:17;;;;;;;13.10;12.00;;;;;;;12.58;98.85;100036.78;5063393;28;20207;-74
2021/07/01 04:05:43;;;;;;;13.20;11.80;;;;;;;12.61;98.89;100025.38;5063290;28;20562;-73
2021/07/01 04:08:09;;;;;;;12.63;11.43;;;;;;;12.58;98.46;100035.94;5062900;28;20913;-74
2021/07/01 04:10:36;;;;;;;13.47;12.17;;;;;;;12.60;98.95;100021.88;5062910;28;20609;-72
2021/07/01 04:13:04;;;;;;;16.10;12.60;;;;;;;12.52;99.50;100009.03;5063025;28;20215;-75
2021/07/01 04:15:30;;;;;;;13.27;12.07;;;;;;;12.46;99.18;100009.25;5063698;28;20459;-74
2021/07/01 04:17:57;;;;;;;14.53;13.00;;;;;;;12.59;99.43;100006.22;5062650;28;20297;-74
2021/07/01 04:20:23;;;;;;;12.30;11.13;;;;;;;12.57;99.43;100013.28;5062658;28;20731;-74
2021/07/01 04:22:49;;;;;;;13.40;12.20;;;;;;;12.58;99.16;100013.22;5062874;28;20218;-75
2021/07/01 04:25:16;;;;;;;14.33;12.80;;;;;;;12.58;99.45;100005.34;5063451;28;20266;-75
2021/07/01 04:27:42;;;;;;;12.30;11.23;;;;;;;12.54;99.50;100013.38;5062196;28;20226;-75
2021/07/01 04:30:11;;;;;;;13.37;12.03;;;;;;;12.55;99.52;100007.22;5062930;28;20697;-75
2021/07/01 04:32:38;;;;;;;13.33;12.27;;;;;;;12.56;99.94;100001.94;5062549;28;21014;-74
2021/07/01 04:35:05;;;;;;;15.53;12.07;;;;;;;12.56;99.94;99998.47;5062821;28;20256;-75
2021/07/01 04:37:31;;;;;;;12.43;11.50;;;;;;;12.68;99.84;100000.66;5062429;28;20226;-75
2021/07/01 04:39:58;;;;;;;11.47;10.47;;;;;;;12.69;99.19;100024.19;5062516;28;20206;-74
2021/07/01 04:42:24;;;;;;;11.90;10.93;;;;;;;12.71;98.85;100030.22;5062675;28;20284;-76
2021/07/01 04:44:51;;;;;;;11.77;10.57;;;;;;;12.69;98.92;100033.81;5061925;28;20211;-75
2021/07/01 04:47:19;;;;;;;12.37;11.37;;;;;;;12.65;99.34;100037.44;5062160;28;20775;-74
2021/07/01 04:49:46;;;;;;;13.10;11.80;;;;;;;12.68;99.58;100024.22;5062701;28;20294;-75
2021/07/01 04:52:12;;;;;;;11.17;10.27;;;;;;;12.56;99.57;100035.97;5062501;28;20638;-75
2021/07/01 04:54:39;;;;;;;13.27;12.07;;;;;;;12.41;100.00;100011.19;5062271;28;20464;-74
2021/07/01 04:57:05;;;;;;;12.20;11.03;;;;;;;12.43;100.00;99990.19;5062114;28;20279;-74
2021/07/01 04:59:31;;;;;;;12.47;11.27;;;;;;;12.48;100.00;99983.03;5062450;28;20209;-74
2021/07/01 05:01:58;;;;;;;11.20;10.13;;;;;;;12.47;100.00;99983.94;5061029;28;20227;-75
2021/07/01 05:04:25;;;;;;;10.70;9.90;;;;;;;12.50;100.00;99987.28;5062758;28;21272;-74
2021/07/01 05:06:52;;;;;;;10.73;9.80;;;;;;;12.54;100.00;99979.34;5061933;28;20230;-75
2021/07/01 05:09:18;;;;;;;9.17;8.43;;;;;;;12.56;100.00;99974.91;5062271;28;20201;-75
2021/07/01 05:11:45;;;;;;;12.87;10.43;;;;;;;12.55;100.00;99979.28;5062081;28;20264;-74
2021/07/01 05:14:11;;;;;;;11.73;10.57;;;;;;;12.57;100.00;99977.47;5061494;28;20212;-75
2021/07/01 05:16:38;;;;;;;10.03;9.13;;;;;;;12.59;100.00;99982.66;5062262;28;20285;-74
2021/07/01 05:19:04;;;;;;;11.03;9.83;;;;;;;12.61;100.00;99986.09;5062424;28;20234;-75
2021/07/01 05:21:32;;;;;;;10.23;9.33;;;;;;;12.61;100.00;99988.72;5061777;28;20606;-75
2021/07/01 05:23:58;;;;;;;10.40;9.37;;;;;;;12.68;100.00;99993.66;5061640;28;20206;-75
2021/07/01 05:26:25;;;;;;;9.13;8.33;;;;;;;12.78;100.00;100009.91;5061758;28;20544;-75
2021/07/01 05:28:51;;;;;;;9.60;8.87;;;;;;;12.84;100.00;100006.22;5061862;28;20215;-75
2021/07/01 05:31:18;;;;;;;8.90;8.17;;;;;;;12.68;99.96;100013.75;5061422;28;20206;-74
2021/07/01 05:33:44;;;;;;;8.70;8.03;;;;;;;12.62;100.00;99998.25;5062082;28;20215;-75
2021/07/01 05:36:11;;;;;;;8.73;7.93;;;;;;;12.62;100.00;99990.41;5061829;28;20267;-75
2021/07/01 05:38:39;;;;;;;9.40;8.13;;;;;;;12.66;100.00;99984.16;5061331;28;20256;-75
2021/07/01 05:41:05;;;;;;;8.50;7.80;;;;;;;12.68;100.00;99972.69;5061342;28;20506;-74
2021/07/01 05:43:32;;;;;;;9.40;8.60;;;;;;;12.82;100.00;99973.97;5061725;28;20210;-75
2021/07/01 05:45:58;;;;;;;8.93;8.00;;;;;;;12.78;100.00;99993.34;5061457;28;20271;-75
2021/07/01 05:48:26;;;;;;;7.90;7.23;;;;;;;12.82;100.00;99997.56;5061480;28;20201;-74
2021/07/01 05:50:54;;;;;;;8.57;7.87;;;;;;;12.74;100.00;99997.81;5061819;28;20206;-75
2021/07/01 05:53:26;;;;;;;8.90;8.20;;;;;;;12.62;100.00;99985.16;5061461;28;20287;-75
2021/07/01 05:55:54;;;;;;;8.67;7.97;;;;;;;12.65;100.00;99987.69;5060947;28;20210;-76
2021/07/01 05:58:20;;;;;;;9.03;8.23;;;;;;;12.68;100.00;99982.31;5061437;28;20260;-75
2021/07/01 06:00:47;;;;;;;9.13;8.17;;;;;;;12.72;100.00;99986.53;5061765;28;20234;-76
2021/07/01 06:03:13;;;;;;;8.37;7.77;;;;;;;12.76;100.00;99992.53;5061006;28;20476;-75
2021/07/01 06:05:44;;;;;;;8.47;7.87;;;;;;;12.74;100.00;99989.13;5062086;28;20681;-76
2021/07/01 06:08:12;;;;;;;8.60;7.90;;;;;;;12.69;100.00;99982.28;5061678;28;20264;-74
2021/07/01 06:10:39;;;;;;;10.20;9.07;;;;;;;12.73;100.00;99979.56;5060944;28;20209;-76
2021/07/01 06:13:08;;;;;;;8.30;7.70;;;;;;;12.83;100.00;99973.09;5064328;28;20241;-76
2021/07/01 06:15:35;;;;;;;7.83;7.33;;;;;;;12.83;100.00;99970.47;5065277;28;20750;-75
2021/07/01 06:18:02;;;;;;;7.50;6.90;;;;;;;12.87;100.00;99980.78;5065162;28;20847;-75
2021/07/01 06:20:29;;;;;;;7.70;7.10;;;;;;;12.95;100.00;99979.66;5065597;28;20259;-75
2021/07/01 06:22:55;;;;;;;7.63;7.00;;;;;;;12.90;100.00;99991.16;5065426;28;20295;-74
2021/07/01 06:25:23;;;;;;;7.97;7.37;;;;;;;12.94;100.00;99991.03;5064415;28;20203;-75
2021/07/01 06:27:50;;;;;;;7.63;7.13;;;;;;;12.99;100.00;99995.19;5065395;28;20320;-75
2021/07/01 06:30:20;;;;;;;7.30;6.70;;;;;;;13.09;100.00;100001.81;5065341;28;20278;-76
2021/07/01 06:32:47;;;;;;;7.07;6.57;;;;;;;13.22;100.00;100002.22;5064695;28;20633;-75
2021/07/01 06:35:14;;;;;;;7.73;7.13;;;;;;;13.29;100.00;100014.22;5065156;28;20293;-76
2021/07/01 06:37:41;;;;;;;6.13;5.73;;;;;;;13.33;100.00;100022.81;5064716;28;20320;-76
2021/07/01 06:40:10;;;;;;;6.73;6.23;;;;;;;13.24;99.91;100036.22;5065366;28;20449;-76
2021/07/01 06:42:43;;;;;;;7.10;6.50;;;;;;;13.17;99.66;100037.38;5064712;28;20225;-75
2021/07/01 06:45:11;;;;;;;6.90;6.40;;;;;;;13.24;100.00;100031.84;5064956;28;20206;-76
2021/07/01 06:47:41;;;;;;;7.10;6.60;;;;;;;13.33;99.93;100022.81;5066210;28;20253;-78
2021/07/01 06:50:09;;;;;;;6.70;6.20;;;;;;;13.37;99.85;100016.56;5067771;28;20208;-78
2021/07/01 06:52:36;;;;;;;7.77;7.20;;;;;;;13.38;99.91;100013.03;5067407;28;20210;-77
2021/07/01 06:55:02;;;;;;;6.87;6.37;;;;;;;13.49;99.79;100012.63;5067918;28;20572;-78
2021/07/01 06:57:29;;;;;;;7.03;6.43;;;;;;;13.42;99.45;100026.84;5067685;28;20276;-78
2021/07/01 06:59:56;;;;;;;6.40;5.80;;;;;;;13.51;99.25;100043.09;5067581;28;20620;-78
2021/07/01 07:02:24;;;;;;;6.37;5.77;;;;;;;13.52;98.97;100057.09;5066259;28;20222;-77
2021/07/01 07:04:52;;;;;;;6.40;5.80;;;;;;;13.54;98.65;100049.16;5066221;28;20766;-78
2021/07/01 07:07:18;;;;;;;6.00;5.50;;;;;;;13.38;98.65;100049.75;5067407;28;20221;-78
2021/07/01 07:09:44;;;;;;;6.37;5.77;;;;;;;13.43;98.58;100039.91;5065643;28;20218;-78
2021/07/01 07:12:11;;;;;;;5.50;5.10;;;;;;;13.44;98.32;100049.50;5065606;28;20713;-79
2021/07/01 07:14:37;;;;;;;5.63;5.13;;;;;;;13.48;98.20;100061.59;5066192;28;20199;-77
2021/07/01 07:17:06;;;;;;;5.83;5.33;;;;;;;13.21;99.04;100058.16;5064351;28;20229;-77
2021/07/01 07:19:33;;;;;;;5.80;5.30;;;;;;;13.26;99.01;100050.13;5064221;28;20296;-76
2021/07/01 07:22:03;;;;;;;5.37;4.87;;;;;;;13.26;98.72;100037.91;5065639;28;20272;-77
2021/07/01 07:24:30;;;;;;;5.17;4.77;;;;;;;13.22;99.49;100033.69;5064304;28;20233;-77
2021/07/01 07:26:57;;;;;;;5.17;4.73;;;;;;;13.25;99.36;100035.31;5064382;28;20723;-78
2021/07/01 07:29:28;;;;;;;5.83;5.33;;;;;;;13.11;99.24;100022.72;5065979;28;20210;-78
2021/07/01 07:31:55;;;;;;;6.00;5.50;;;;;;;13.20;100.00;100013.66;5063077;28;20649;-74
2021/07/01 07:34:22;;;;;;;6.47;5.97;;;;;;;13.20;99.93;100011.03;5063860;28;20235;-74
2021/07/01 07:36:48;;;;;;;5.73;5.33;;;;;;;13.12;99.92;100008.69;5063518;28;20280;-74
2021/07/01 07:39:16;;;;;;;5.90;5.50;;;;;;;13.13;100.00;99994.69;5064419;28;20209;-77
2021/07/01 07:41:42;;;;;;;6.43;5.93;;;;;;;13.15;100.00;99985.00;5066076;28;20717;-74
2021/07/01 07:44:09;;;;;;;6.17;5.67;;;;;;;13.08;100.00;99979.16;5067538;28;20235;-75
2021/07/01 07:46:35;;;;;;;6.27;5.77;;;;;;;13.11;100.00;99967.69;5064421;28;20528;-73
2021/07/01 07:49:01;;;;;;;6.40;5.67;;;;;;;13.25;100.00;99969.81;5064792;28;20256;-73
2021/07/01 07:51:30;;;;;;;6.03;5.60;;;;;;;13.30;100.00;99971.38;5065037;28;20254;-74
2021/07/01 07:54:02;;;;;;;4.90;4.60;;;;;;;13.25;100.00;99983.75;5063789;28;20207;-74
2021/07/01 07:56:37;;;;;;;6.73;4.87;;;;;;;13.28;100.00;99993.28;5063584;28;20246;-73
2021/07/01 07:59:04;;;;;;;5.00;4.70;;;;;;;13.36;100.00;99991.25;5063023;28;20203;-73
2021/07/01 08:01:31;;;;;;;5.70;5.20;;;;;;;13.31;100.00;99994.03;5062413;28;20229;-75
2021/07/01 08:03:58;;;;;;;4.50;4.30;;;;;;;13.14;100.00;99999.03;5062534;28;20205;-73
2021/07/01 08:06:25;;;;;;;5.10;4.77;;;;;;;13.14;100.00;99993.81;5063799;28;20272;-74
2021/07/01 08:08:53;;;;;;;5.73;5.33;;;;;;;13.23;100.00;99984.72;5062733;28;20218;-73
2021/07/01 08:11:22;;;;;;;5.50;5.10;;;;;;;13.23;100.00;99992.59;5063381;28;20211;-74
2021/07/01 08:13:54;;;;;;;5.63;5.23;;;;;;;13.27;100.00;99989.78;5063201;28;20220;-75
2021/07/01 08:16:23;;;;;;;5.80;5.30;;;;;;;13.30;100.00;99991.50;5063468;28;20810;-73
2021/07/01 08:18:50;;;;;;;6.23;5.73;;;;;;;13.38;100.00;99999.03;5062631;28;20256;-74
2021/07/01 08:21:17;;;;;;;5.20;4.90;;;;;;;13.42;100.00;99998.91;5062333;28;20264;-75
2021/07/01 08:23:44;;;;;;;5.17;4.77;;;;;;;13.26;100.00;100001.19;5062853;28;20251;-75
2021/07/01 08:26:12;;;;;;;6.10;5.70;;;;;;;13.30;100.00;100005.44;5063380;28;20229;-73
2021/07/01 08:28:40;;;;;;;7.67;6.87;;;;;;;13.34;100.00;99989.59;5063042;28;20556;-77
2021/07/01 08:31:11;;;;;;;6.30;5.83;;;;;;;13.35;100.00;99989.53;5063201;28;20280;-74
2021/07/01 08:33:39;;;;;;;6.07;5.57;;;;;;;13.42;100.00;99990.16;5062640;28;20214;-74
2021/07/01 08:36:09;;;;;;;6.23;5.73;;;;;;;13.40;100.00;99997.22;5062841;28;20321;-75
2021/07/01 08:38:37;;;;;;;6.67;6.17;;;;;;;13.37;100.00;99992.97;5061863;28;20218;-73
2021/07/01 08:41:14;;;;;;;7.40;6.80;;;;;;;13.48;100.00;99993.41;5062277;28;20218;-74
2021/07/01 08:43:51;;;;;;;7.67;7.07;;;;;;;13.50;100.00;99999.47;5062048;28;20569;-74
2021/07/01 08:46:25;;;;;;;6.93;6.43;;;;;;;13.54;100.00;99994.97;5062582;28;20234;-74
2021/07/01 08:49:04;;;;;;;7.10;6.50;;;;;;;13.46;100.00;100005.72;5062212;28;20254;-72
2021/07/01 08:51:36;;;;;;;6.80;6.30;;;;;;;13.56;100.00;100003.63;5062530;28;20203;-75
2021/07/01 08:54:23;;;;;;;6.37;5.67;;;;;;;13.41;100.00;100005.03;5059999;28;20205;-74
2021/07/01 08:56:51;;;;;;;7.33;6.53;;;;;;;13.41;100.00;100006.81;5061746;28;20651;-73
2021/07/01 08:59:19;;;;;;;6.30;5.90;;;;;;;13.40;100.00;100000.72;5061419;28;20214;-73
2021/07/01 09:01:53;;;;;;;7.00;6.40;;;;;;;13.48;100.00;100003.91;5062321;28;20249;-75
2021/07/01 09:04:21;;;;;;;6.50;5.87;;;;;;;13.51;100.00;99995.91;5062414;28;20206;-77
2021/07/01 09:06:56;;;;;;;5.57;5.07;;;;;;;13.60;100.00;100006.97;5061859;28;20588;-77
2021/07/01 09:09:31;;;;;;;6.00;5.50;;;;;;;13.72;100.00;100013.53;5061866;28;20254;-77
2021/07/01 09:12:00;;;;;;;6.63;6.23;;;;;;;13.70;100.00;100013.56;5062179;28;20202;-76
2021/07/01 09:14:28;;;;;;;5.13;4.73;;;;;;;13.62;100.00;100026.13;5061895;28;20642;-77
2021/07/01 09:16:56;;;;;;;5.90;5.50;;;;;;;13.66;100.00;100025.94;5061074;28;20637;-77
2021/07/01 09:19:24;;;;;;;4.43;4.10;;;;;;;13.58;100.00;100028.00;5062054;28;20269;-76
2021/07/01 09:21:51;;;;;;;5.10;4.70;;;;;;;13.66;100.00;100022.47;5062039;28;20242;-77
2021/07/01 09:24:18;;;;;;;5.20;4.80;;;;;;;13.70;100.00;100019.66;5062655;28;20255;-77
2021/07/01 09:26:47;;;;;;;4.80;4.50;;;;;;;13.74;100.00;100024.81;5063005;28;20246;-76
2021/07/01 09:29:14;;;;;;;4.90;4.50;;;;;;;13.76;100.00;100022.97;5061869;28;20263;-77
2021/07/01 09:31:41;;;;;;;4.50;4.10;;;;;;;13.79;100.00;100030.72;5062128;28;20198;-77
2021/07/01 09:34:10;;;;;;;4.13;3.83;;;;;;;13.75;100.00;100032.59;5060952;28;20261;-76
2021/07/01 09:36:37;;;;;;;3.90;3.70;;;;;;;13.73;100.00;100033.56;5062028;28;20221;-78
2021/07/01 09:39:04;;;;;;;3.73;3.43;;;;;;;13.68;100.00;100039.00;5062401;28;20263;-77
2021/07/01 09:41:31;;;;;;;4.07;3.80;;;;;;;13.75;100.00;100032.59;5062893;28;20210;-77
2021/07/01 09:44:01;;;;;;;3.93;3.70;;;;;;;13.78;100.00;100032.50;5062544;28;20233;-76
2021/07/01 09:46:28;;;;;;;4.00;3.70;;;;;;;13.78;100.00;100027.25;5062719;28;20755;-78
2021/07/01 09:49:00;;;;;;;3.40;3.10;;;;;;;13.66;100.00;100036.44;5062215;28;20207;-77
2021/07/01 09:51:30;;;;;;;3.47;3.27;;;;;;;13.72;100.00;100031.88;5061674;28;20591;-75
2021/07/01 09:53:57;;;;;;;3.27;3.07;;;;;;;13.82;100.00;100028.84;5061998;28;20224;-76
2021/07/01 09:56:36;;;;;;;3.27;3.07;;;;;;;13.74;100.00;100036.16;5061533;28;20597;-77
2021/07/01 09:59:04;;;;;;;3.70;3.07;;;;;;;13.83;100.00;100029.69;5062572;28;20208;-77
2021/07/01 10:01:37;;;;;;;3.20;2.90;;;;;;;13.78;100.00;100023.78;5062325;28;20203;-78
2021/07/01 10:04:05;;;;;;;3.60;3.30;;;;;;;13.94;100.00;100027.50;5063695;28;20709;-77
2021/07/01 10:06:32;;;;;;;2.90;2.70;;;;;;;13.99;100.00;100033.41;5062550;28;20236;-78
2021/07/01 10:08:59;;;;;;;3.23;2.93;;;;;;;14.04;100.00;100041.97;5063438;28;20235;-77
2021/07/01 10:11:37;;;;;;;2.80;2.60;;;;;;;14.07;100.00;100049.72;5063574;28;20445;-77
2021/07/01 10:14:06;;;;;;;2.50;2.30;;;;;;;14.14;100.00;100057.34;5063034;28;20259;-75
2021/07/01 10:16:34;;;;;;;2.07;1.97;;;;;;;14.19;100.00;100052.75;5061290;28;20229;-74
2021/07/01 10:19:03;;;;;;;2.47;2.27;;;;;;;14.19;100.00;100058.00;5062938;28;20750;-74
2021/07/01 10:21:31;;;;;;;1.93;1.83;;;;;;;14.09;100.00;100063.63;5063242;28;20629;-77
2021/07/01 10:24:13;;;;;;;2.13;2.03;;;;;;;14.16;100.00;100068.66;5063074;28;20222;-76
2021/07/01 10:26:43;;;;;;;2.33;2.13;;;;;;;14.10;100.00;100061.88;5062097;28;20716;-76
2021/07/01 10:29:10;;;;;;;2.80;2.60;;;;;;;13.95;100.00;100062.47;5062345;28;20250;-74
2021/07/01 10:31:48;;;;;;;2.57;2.27;;;;;;;13.99;100.00;100049.16;5061002;28;20218;-74
2021/07/01 10:34:15;;;;;;;2.20;2.00;;;;;;;14.09;100.00;100047.91;5061498;28;20680;-75
2021/07/01 10:36:42;;;;;;;2.47;2.27;;;;;;;14.00;100.00;100053.50;5061548;28;20732;-75
2021/07/01 10:39:10;;;;;;;3.23;2.53;;;;;;;14.02;100.00;100049.03;5063610;28;20217;-75
2021/07/01 10:41:39;;;;;;;2.33;2.13;;;;;;;14.04;100.00;100034.09;5063648;28;20215;-75
2021/07/01 10:44:07;;;;;;;2.43;2.13;;;;;;;14.00;100.00;100040.38;5063140;28;20305;-75
2021/07/01 10:46:38;;;;;;;2.10;2.00;;;;;;;14.01;100.00;100041.22;5061037;28;20226;-73
2021/07/01 10:49:05;;;;;;;2.23;2.13;;;;;;;14.00;100.00;100034.28;5061277;28;20262;-74
2021/07/01 10:51:33;;;;;;;2.40;2.20;;;;;;;13.99;100.00;100033.41;5061558;28;20210;-73
2021/07/01 10:54:11;;;;;;;2.40;2.20;;;;;;;14.05;100.00;100027.06;5061212;28;20205;-73
2021/07/01 10:56:42;;;;;;;2.40;2.30;;;;;;;14.19;100.00;100037.00;5061998;28;20233;-72
2021/07/01 10:59:10;;;;;;;2.47;2.27;;;;;;;14.24;100.00;100030.66;5062328;28;20696;-72
2021/07/01 11:01:38;;;;;;;2.30;2.10;;;;;;;14.22;100.00;100036.91;5065098;28;20653;-75
2021/07/01 11:04:07;;;;;;;1.60;1.50;;;;;;;14.24;100.00;100049.03;5063890;28;20315;-73
2021/07/01 11:06:34;;;;;;;1.90;1.80;;;;;;;14.13;100.00;100045.97;5065387;28;20583;-74
2021/07/01 11:09:01;;;;;;;2.07;1.97;;;;;;;14.24;100.00;100049.03;5064890;28;20239;-75
2021/07/01 11:11:31;;;;;;;2.13;2.03;;;;;;;14.33;100.00;100049.56;5066795;28;20266;-75
2021/07/01 11:13:59;;;;;;;2.20;2.00;;;;;;;14.15;100.00;100061.66;5065183;28;20666;-74
2021/07/01 11:16:33;;;;;;;1.80;1.70;;;;;;;14.20;100.00;100043.97;5065295;28;20628;-75
2021/07/01 11:19:00;;;;;;;2.37;1.50;;;;;;;14.30;100.00;100048.78;5065761;28;20217;-75